Hauptseite
METAR-TAF:

METAR-TAF

Flughäfen :

Flughafen Karlsbad

Karlsbad, Tschechien

Breite: 50-12N, Länge: 012-55E, Höhe: 603 m

Beobachtung

Neuester Wetterbericht von vor 15 Minuten, um 02:00 UTC
Wind 3 kt aus Ost
Temperatur -2°C
Luftfeuchtigkeit 86%
Luftdruck 1034 hPa
Sichtweite 10 km oder mehr
keine Wolken unter 1500 m und keine Kumulonimbus oder Gewitterwolken

METAR: LKKV 210200Z 09003KT CAVOK M02/M04 Q1034

Zeit: 03:15 (02:15 UTC)

Prognose

Neuester Wetterbericht von vor 3 Stunden und 15 Minuten, um 23:00 UTC
Gültige Prognose vom 21 um 00 UTC bis 22 um 06 UTC
Wind 2 kt aus unterschiedlichen Richtungen
Sichtweite 10 km oder mehr
keine Wolken unter 1500 m und keine Kumulonimbus oder Gewitterwolken
Zeitweise
vom 21 um 12 UTC bis 21 um 16 UTC
Wind 5 kt aus Nord/Nordwest

TAF: LKKV 202300Z 2100/2206 VRB02KT CAVOK TEMPO 2112/2116 34005KT

Wetterbeobachtungen und Prognosen von mehr als 4000 Flughäfen (METAR und TAF Bericht).

Die verfügbaren Stationen werden durch gelbe und rote Markierungen auf der Karte dargestellt.

Führen Sie die Maus auf sie, um den Namen der Station zu sehen.

Darauf klicken, um die Beobachtung von Wetterbeobachtungen und Prognosen zu sehen.

Um die Karte zu ändern : klicken Sie auf den grünen Tasten mit einem schwarzen Kreuz Zum Vergrößern, auf den grünen Button mit einem Gedankenstrich zu verkleinern, oder auf die grünen Pfeile für benachbarte Karten.


METAR-TAF: